ADDS METAR Data INFO
IDs: Format: Raw Decoded Include TAF

Data at: 0127 UTC 18 Aug 2018

METAR for:KFNL (Fort Collins/Lovelan, CO, US)
Text:KFNL 180056Z AUTO 15008KT 10SM CLR 27/13 A3018 RMK AO2 SLP161 T02670128 PNO $
Temperature: 26.7°C ( 80°F)
Dewpoint: 12.8°C ( 55°F) [RH = 42%]
Pressure (altimeter):30.18 inches Hg (1022.1 mb) [Sea level pressure: 1016.1 mb]
Winds:from the SSE (150 degrees) at 9 MPH (8 knots; 4.1 m/s)
Visibility:10 or more sm (16+ km)
Ceiling:at least 12,000 feet AGL
Clouds:sky clear below 12,000 feet AGL
QC Flag:automated observation with no human augmentation; SOME DATA ABOVE MAY BE INACCURATE!!!"$" is an indication the sensor requires maintenance.
Text:KFNL 172356Z AUTO 09009KT 10SM CLR 31/09 A3017 RMK AO2 SLP149 6//// T03110089 10317 20267 56017 PNO $
Temperature: 31.1°C ( 88°F)
Dewpoint: 8.9°C ( 48°F) [RH = 25%]
Pressure (altimeter):30.17 inches Hg (1021.8 mb) [Sea level pressure: 1014.9 mb]
Winds:from the E (90 degrees) at 10 MPH (9 knots; 4.6 m/s)
Visibility:10 or more sm (16+ km)
Ceiling:at least 12,000 feet AGL
Clouds:sky clear below 12,000 feet AGL
QC Flag:automated observation with no human augmentation; SOME DATA ABOVE MAY BE INACCURATE!!!"$" is an indication the sensor requires maintenance.
Text:KFNL 172256Z AUTO 00000KT 6SM HZ CLR 31/12 A3018 RMK AO2 SLP155 T03060117 PNO $
Temperature: 30.6°C ( 87°F)
Dewpoint: 11.7°C ( 53°F) [RH = 31%]
Pressure (altimeter):30.18 inches Hg (1022.1 mb) [Sea level pressure: 1015.5 mb]
Winds:calm
Visibility: 6 sm ( 10 km)
Ceiling:at least 12,000 feet AGL
Clouds:sky clear below 12,000 feet AGL
Weather:HZ (haze)
QC Flag:automated observation with no human augmentation; SOME DATA ABOVE MAY BE INACCURATE!!!"$" is an indication the sensor requires maintenance.
Text:KFNL 172156Z AUTO 00000KT 7SM CLR 31/12 A3019 RMK AO2 LTG DSNT N SLP156 T03060117 PNO $
Temperature: 30.6°C ( 87°F)
Dewpoint: 11.7°C ( 53°F) [RH = 31%]
Pressure (altimeter):30.19 inches Hg (1022.4 mb) [Sea level pressure: 1015.6 mb]
Winds:calm
Visibility: 7 sm ( 11 km)
Ceiling:at least 12,000 feet AGL
Clouds:sky clear below 12,000 feet AGL
QC Flag:automated observation with no human augmentation; SOME DATA ABOVE MAY BE INACCURATE!!!"$" is an indication the sensor requires maintenance.
Text:KFNL 172056Z AUTO 24008KT 10SM CLR 27/13 A3023 RMK AO2 SLP173 6//// T02720128 56006 PNO $
Temperature: 27.2°C ( 81°F)
Dewpoint: 12.8°C ( 55°F) [RH = 41%]
Pressure (altimeter):30.23 inches Hg (1023.8 mb) [Sea level pressure: 1017.3 mb]
Winds:from the WSW (240 degrees) at 9 MPH (8 knots; 4.1 m/s)
Visibility:10 or more sm (16+ km)
Ceiling:at least 12,000 feet AGL
Clouds:sky clear below 12,000 feet AGL
QC Flag:automated observation with no human augmentation; SOME DATA ABOVE MAY BE INACCURATE!!!"$" is an indication the sensor requires maintenance.
Text:KFNL 171956Z AUTO 25006KT 10SM CLR 28/13 A3023 RMK AO2 LTG DSNT W SLP172 T02830133 PNO $
Temperature: 28.3°C ( 83°F)
Dewpoint: 13.3°C ( 56°F) [RH = 40%]
Pressure (altimeter):30.23 inches Hg (1023.8 mb) [Sea level pressure: 1017.2 mb]
Winds:from the WSW (250 degrees) at 7 MPH (6 knots; 3.1 m/s)
Visibility:10 or more sm (16+ km)
Ceiling:at least 12,000 feet AGL
Clouds:sky clear below 12,000 feet AGL
QC Flag:automated observation with no human augmentation; SOME DATA ABOVE MAY BE INACCURATE!!!"$" is an indication the sensor requires maintenance.
Text:KFNL 171856Z AUTO VRB04KT 9SM CLR 29/11 A3023 RMK AO2 SLP170 T02890111 PNO $
Temperature: 28.9°C ( 84°F)
Dewpoint: 11.1°C ( 52°F) [RH = 33%]
Pressure (altimeter):30.23 inches Hg (1023.8 mb) [Sea level pressure: 1017.0 mb]
Winds:variable direction winds at 5 MPH (4 knots; 2.1 m/s)
Visibility: 9 sm ( 14 km)
Ceiling:at least 12,000 feet AGL
Clouds:sky clear below 12,000 feet AGL
QC Flag:automated observation with no human augmentation; SOME DATA ABOVE MAY BE INACCURATE!!!"$" is an indication the sensor requires maintenance.
Text:KFNL 171756Z AUTO 21005KT 10SM CLR 27/11 A3025 RMK AO2 SLP180 6//// T02670106 10272 20150 58006 PNO $
Temperature: 26.7°C ( 80°F)
Dewpoint: 10.6°C ( 51°F) [RH = 36%]
Pressure (altimeter):30.25 inches Hg (1024.5 mb) [Sea level pressure: 1018.0 mb]
Winds:from the SSW (210 degrees) at 6 MPH (5 knots; 2.6 m/s)
Visibility:10 or more sm (16+ km)
Ceiling:at least 12,000 feet AGL
Clouds:sky clear below 12,000 feet AGL
QC Flag:automated observation with no human augmentation; SOME DATA ABOVE MAY BE INACCURATE!!!"$" is an indication the sensor requires maintenance.
Text:KFNL 171656Z AUTO VRB03KT 10SM CLR 24/13 A3026 RMK AO2 SLP184 T02440128 PNO $
Temperature: 24.4°C ( 76°F)
Dewpoint: 12.8°C ( 55°F) [RH = 48%]
Pressure (altimeter):30.26 inches Hg (1024.8 mb) [Sea level pressure: 1018.4 mb]
Winds:variable direction winds at 3 MPH (3 knots; 1.5 m/s)
Visibility:10 or more sm (16+ km)
Ceiling:at least 12,000 feet AGL
Clouds:sky clear below 12,000 feet AGL
QC Flag:automated observation with no human augmentation; SOME DATA ABOVE MAY BE INACCURATE!!!"$" is an indication the sensor requires maintenance.
Text:KFNL 171556Z AUTO 01007KT 10SM CLR 22/13 A3027 RMK AO2 SLP189 T02170128 PNO $
Temperature: 21.7°C ( 71°F)
Dewpoint: 12.8°C ( 55°F) [RH = 57%]
Pressure (altimeter):30.27 inches Hg (1025.1 mb) [Sea level pressure: 1018.9 mb]
Winds:from the N (10 degrees) at 8 MPH (7 knots; 3.6 m/s)
Visibility:10 or more sm (16+ km)
Ceiling:at least 12,000 feet AGL
Clouds:sky clear below 12,000 feet AGL
QC Flag:automated observation with no human augmentation; SOME DATA ABOVE MAY BE INACCURATE!!!"$" is an indication the sensor requires maintenance.
Text:KFNL 171456Z AUTO 36008KT 10SM CLR 19/12 A3027 RMK AO2 SLP188 6//// T01940122 50005 PNO $
Temperature: 19.4°C ( 67°F)
Dewpoint: 12.2°C ( 54°F) [RH = 63%]
Pressure (altimeter):30.27 inches Hg (1025.1 mb) [Sea level pressure: 1018.8 mb]
Winds:from the N (360 degrees) at 9 MPH (8 knots; 4.1 m/s)
Visibility:10 or more sm (16+ km)
Ceiling:at least 12,000 feet AGL
Clouds:sky clear below 12,000 feet AGL
QC Flag:automated observation with no human augmentation; SOME DATA ABOVE MAY BE INACCURATE!!!"$" is an indication the sensor requires maintenance.
Text:KFNL 171356Z AUTO 36007KT 10SM CLR 18/12 A3027 RMK AO2 SLP190 T01780122 PNO $
Temperature: 17.8°C ( 64°F)
Dewpoint: 12.2°C ( 54°F) [RH = 70%]
Pressure (altimeter):30.27 inches Hg (1025.1 mb) [Sea level pressure: 1019.0 mb]
Winds:from the N (360 degrees) at 8 MPH (7 knots; 3.6 m/s)
Visibility:10 or more sm (16+ km)
Ceiling:at least 12,000 feet AGL
Clouds:sky clear below 12,000 feet AGL
QC Flag:automated observation with no human augmentation; SOME DATA ABOVE MAY BE INACCURATE!!!"$" is an indication the sensor requires maintenance.
Text:KFNL 171256Z AUTO 01006KT 10SM CLR 16/12 A3026 RMK AO2 SLP185 T01610117 PNO $
Temperature: 16.1°C ( 61°F)
Dewpoint: 11.7°C ( 53°F) [RH = 75%]
Pressure (altimeter):30.26 inches Hg (1024.8 mb) [Sea level pressure: 1018.5 mb]
Winds:from the N (10 degrees) at 7 MPH (6 knots; 3.1 m/s)
Visibility:10 or more sm (16+ km)
Ceiling:at least 12,000 feet AGL
Clouds:sky clear below 12,000 feet AGL
QC Flag:automated observation with no human augmentation; SOME DATA ABOVE MAY BE INACCURATE!!!"$" is an indication the sensor requires maintenance.
Text:KFNL 171156Z AUTO 01006KT 10SM CLR 16/12 A3025 RMK AO2 SLP180 6//// 7//// T01610117 10194 20150 51002 PNO $
Temperature: 16.1°C ( 61°F)
Dewpoint: 11.7°C ( 53°F) [RH = 75%]
Pressure (altimeter):30.25 inches Hg (1024.5 mb) [Sea level pressure: 1018.0 mb]
Winds:from the N (10 degrees) at 7 MPH (6 knots; 3.1 m/s)
Visibility:10 or more sm (16+ km)
Ceiling:at least 12,000 feet AGL
Clouds:sky clear below 12,000 feet AGL
QC Flag:automated observation with no human augmentation; SOME DATA ABOVE MAY BE INACCURATE!!!"$" is an indication the sensor requires maintenance.
Text:KFNL 171056Z AUTO 34005KT 10SM CLR 16/11 A3024 RMK AO2 SLP180 T01560111 PNO $
Temperature: 15.6°C ( 60°F)
Dewpoint: 11.1°C ( 52°F) [RH = 75%]
Pressure (altimeter):30.24 inches Hg (1024.1 mb) [Sea level pressure: 1018.0 mb]
Winds:from the NNW (340 degrees) at 6 MPH (5 knots; 2.6 m/s)
Visibility:10 or more sm (16+ km)
Ceiling:at least 12,000 feet AGL
Clouds:sky clear below 12,000 feet AGL
QC Flag:automated observation with no human augmentation; SOME DATA ABOVE MAY BE INACCURATE!!!"$" is an indication the sensor requires maintenance.
Text:KFNL 170956Z AUTO 36007KT 10SM CLR 17/12 A3024 RMK AO2 SLP176 T01670117 PNO $
Temperature: 16.7°C ( 62°F)
Dewpoint: 11.7°C ( 53°F) [RH = 72%]
Pressure (altimeter):30.24 inches Hg (1024.1 mb) [Sea level pressure: 1017.6 mb]
Winds:from the N (360 degrees) at 8 MPH (7 knots; 3.6 m/s)
Visibility:10 or more sm (16+ km)
Ceiling:at least 12,000 feet AGL
Clouds:sky clear below 12,000 feet AGL
QC Flag:automated observation with no human augmentation; SOME DATA ABOVE MAY BE INACCURATE!!!"$" is an indication the sensor requires maintenance.
Text:KFNL 170856Z AUTO 02009KT 10SM CLR 18/12 A3024 RMK AO2 SLP173 6//// T01780117 56002 PNO $
Temperature: 17.8°C ( 64°F)
Dewpoint: 11.7°C ( 53°F) [RH = 67%]
Pressure (altimeter):30.24 inches Hg (1024.1 mb) [Sea level pressure: 1017.3 mb]
Winds:from the NNE (20 degrees) at 10 MPH (9 knots; 4.6 m/s)
Visibility:10 or more sm (16+ km)
Ceiling:at least 12,000 feet AGL
Clouds:sky clear below 12,000 feet AGL
QC Flag:automated observation with no human augmentation; SOME DATA ABOVE MAY BE INACCURATE!!!"$" is an indication the sensor requires maintenance.
Text:KFNL 170756Z AUTO 01008KT 10SM CLR 18/12 A3024 RMK AO2 SLP175 T01830117 PNO $
Temperature: 18.3°C ( 65°F)
Dewpoint: 11.7°C ( 53°F) [RH = 65%]
Pressure (altimeter):30.24 inches Hg (1024.1 mb) [Sea level pressure: 1017.5 mb]
Winds:from the N (10 degrees) at 9 MPH (8 knots; 4.1 m/s)
Visibility:10 or more sm (16+ km)
Ceiling:at least 12,000 feet AGL
Clouds:sky clear below 12,000 feet AGL
QC Flag:automated observation with no human augmentation; SOME DATA ABOVE MAY BE INACCURATE!!!"$" is an indication the sensor requires maintenance.
Text:KFNL 170656Z AUTO 02007KT 10SM CLR 19/12 A3024 RMK AO2 SLP176 T01890122 403170144 PNO $
Temperature: 18.9°C ( 66°F)
Dewpoint: 12.2°C ( 54°F) [RH = 65%]
Pressure (altimeter):30.24 inches Hg (1024.1 mb) [Sea level pressure: 1017.6 mb]
Winds:from the NNE (20 degrees) at 8 MPH (7 knots; 3.6 m/s)
Visibility:10 or more sm (16+ km)
Ceiling:at least 12,000 feet AGL
Clouds:sky clear below 12,000 feet AGL
QC Flag:automated observation with no human augmentation; SOME DATA ABOVE MAY BE INACCURATE!!!"$" is an indication the sensor requires maintenance.
Text:KFNL 170556Z AUTO 35006KT 10SM CLR 19/12 A3025 RMK AO2 SLP177 6//// T01890117 10294 20172 51011 PNO $
Temperature: 18.9°C ( 66°F)
Dewpoint: 11.7°C ( 53°F) [RH = 63%]
Pressure (altimeter):30.25 inches Hg (1024.5 mb) [Sea level pressure: 1017.7 mb]
Winds:from the N (350 degrees) at 7 MPH (6 knots; 3.1 m/s)
Visibility:10 or more sm (16+ km)
Ceiling:at least 12,000 feet AGL
Clouds:sky clear below 12,000 feet AGL
QC Flag:automated observation with no human augmentation; SOME DATA ABOVE MAY BE INACCURATE!!!"$" is an indication the sensor requires maintenance.
Text:KFNL 170456Z AUTO 01004KT 10SM CLR 21/12 A3024 RMK AO2 SLP174 T02060117 PNO $
Temperature: 20.6°C ( 69°F)
Dewpoint: 11.7°C ( 53°F) [RH = 57%]
Pressure (altimeter):30.24 inches Hg (1024.1 mb) [Sea level pressure: 1017.4 mb]
Winds:from the N (10 degrees) at 5 MPH (4 knots; 2.1 m/s)
Visibility:10 or more sm (16+ km)
Ceiling:at least 12,000 feet AGL
Clouds:sky clear below 12,000 feet AGL
QC Flag:automated observation with no human augmentation; SOME DATA ABOVE MAY BE INACCURATE!!!"$" is an indication the sensor requires maintenance.
Text:KFNL 170356Z AUTO 12004KT 10SM CLR 23/11 A3023 RMK AO2 SLP174 T02280106 PNO $
Temperature: 22.8°C ( 73°F)
Dewpoint: 10.6°C ( 51°F) [RH = 46%]
Pressure (altimeter):30.23 inches Hg (1023.8 mb) [Sea level pressure: 1017.4 mb]
Winds:from the ESE (120 degrees) at 5 MPH (4 knots; 2.1 m/s)
Visibility:10 or more sm (16+ km)
Ceiling:at least 12,000 feet AGL
Clouds:sky clear below 12,000 feet AGL
QC Flag:automated observation with no human augmentation; SOME DATA ABOVE MAY BE INACCURATE!!!"$" is an indication the sensor requires maintenance.
Text:KFNL 170256Z AUTO 15006KT 10SM CLR 25/11 A3021 RMK AO2 SLP167 6//// T02500106 53011 PNO $
Temperature: 25.0°C ( 77°F)
Dewpoint: 10.6°C ( 51°F) [RH = 40%]
Pressure (altimeter):30.21 inches Hg (1023.1 mb) [Sea level pressure: 1016.7 mb]
Winds:from the SSE (150 degrees) at 7 MPH (6 knots; 3.1 m/s)
Visibility:10 or more sm (16+ km)
Ceiling:at least 12,000 feet AGL
Clouds:sky clear below 12,000 feet AGL
QC Flag:automated observation with no human augmentation; SOME DATA ABOVE MAY BE INACCURATE!!!"$" is an indication the sensor requires maintenance.
Text:KFNL 170156Z AUTO 00000KT 10SM CLR 26/11 A3019 RMK AO2 SLP166 T02610106 PNO $
Temperature: 26.1°C ( 79°F)
Dewpoint: 10.6°C ( 51°F) [RH = 38%]
Pressure (altimeter):30.19 inches Hg (1022.4 mb) [Sea level pressure: 1016.6 mb]
Winds:calm
Visibility:10 or more sm (16+ km)
Ceiling:at least 12,000 feet AGL
Clouds:sky clear below 12,000 feet AGL
QC Flag:automated observation with no human augmentation; SOME DATA ABOVE MAY BE INACCURATE!!!"$" is an indication the sensor requires maintenance.
Text:KFNL 170056Z AUTO 00000KT 10SM CLR 28/11 A3018 RMK AO2 SLP160 T02780106 PNO $
Temperature: 27.8°C ( 82°F)
Dewpoint: 10.6°C ( 51°F) [RH = 34%]
Pressure (altimeter):30.18 inches Hg (1022.1 mb) [Sea level pressure: 1016.0 mb]
Winds:calm
Visibility:10 or more sm (16+ km)
Ceiling:at least 12,000 feet AGL
Clouds:sky clear below 12,000 feet AGL
QC Flag:automated observation with no human augmentation; SOME DATA ABOVE MAY BE INACCURATE!!!"$" is an indication the sensor requires maintenance.
Text:KFNL 162356Z AUTO 20005KT 10SM CLR 29/10 A3017 RMK AO2 LTG DSNT W SLP156 6//// T02940100 10317 20278 55003 PNO $
Temperature: 29.4°C ( 85°F)
Dewpoint: 10.0°C ( 50°F) [RH = 30%]
Pressure (altimeter):30.17 inches Hg (1021.8 mb) [Sea level pressure: 1015.6 mb]
Winds:from the SSW (200 degrees) at 6 MPH (5 knots; 2.6 m/s)
Visibility:10 or more sm (16+ km)
Ceiling:at least 12,000 feet AGL
Clouds:sky clear below 12,000 feet AGL
QC Flag:automated observation with no human augmentation; SOME DATA ABOVE MAY BE INACCURATE!!!"$" is an indication the sensor requires maintenance.
Text:KFNL 162256Z AUTO 19007KT 10SM CLR 30/10 A3017 RMK AO2 SLP155 T03000100 PNO $
Temperature: 30.0°C ( 86°F)
Dewpoint: 10.0°C ( 50°F) [RH = 29%]
Pressure (altimeter):30.17 inches Hg (1021.8 mb) [Sea level pressure: 1015.5 mb]
Winds:from the S (190 degrees) at 8 MPH (7 knots; 3.6 m/s)
Visibility:10 or more sm (16+ km)
Ceiling:at least 12,000 feet AGL
Clouds:sky clear below 12,000 feet AGL
QC Flag:automated observation with no human augmentation; SOME DATA ABOVE MAY BE INACCURATE!!!"$" is an indication the sensor requires maintenance.
Text:KFNL 162156Z AUTO 19008KT 10SM CLR 31/09 A3018 RMK AO2 SLP156 T03060094 PNO $
Temperature: 30.6°C ( 87°F)
Dewpoint: 9.4°C ( 49°F) [RH = 27%]
Pressure (altimeter):30.18 inches Hg (1022.1 mb) [Sea level pressure: 1015.6 mb]
Winds:from the S (190 degrees) at 9 MPH (8 knots; 4.1 m/s)
Visibility:10 or more sm (16+ km)
Ceiling:at least 12,000 feet AGL
Clouds:sky clear below 12,000 feet AGL
QC Flag:automated observation with no human augmentation; SOME DATA ABOVE MAY BE INACCURATE!!!"$" is an indication the sensor requires maintenance.
Text:KFNL 162056Z AUTO 10007KT 9SM CLR 31/10 A3018 RMK AO2 SLP155 6//// T03110100 56010 PNO $
Temperature: 31.1°C ( 88°F)
Dewpoint: 10.0°C ( 50°F) [RH = 27%]
Pressure (altimeter):30.18 inches Hg (1022.1 mb) [Sea level pressure: 1015.5 mb]
Winds:from the E (100 degrees) at 8 MPH (7 knots; 3.6 m/s)
Visibility: 9 sm ( 14 km)
Ceiling:at least 12,000 feet AGL
Clouds:sky clear below 12,000 feet AGL
QC Flag:automated observation with no human augmentation; SOME DATA ABOVE MAY BE INACCURATE!!!"$" is an indication the sensor requires maintenance.
Text:KFNL 161956Z AUTO 17009KT 10SM CLR 29/12 A3019 RMK AO2 SLP157 T02940117 PNO $
Temperature: 29.4°C ( 85°F)
Dewpoint: 11.7°C ( 53°F) [RH = 34%]
Pressure (altimeter):30.19 inches Hg (1022.4 mb) [Sea level pressure: 1015.7 mb]
Winds:from the S (170 degrees) at 10 MPH (9 knots; 4.6 m/s)
Visibility:10 or more sm (16+ km)
Ceiling:at least 12,000 feet AGL
Clouds:sky clear below 12,000 feet AGL
QC Flag:automated observation with no human augmentation; SOME DATA ABOVE MAY BE INACCURATE!!!"$" is an indication the sensor requires maintenance.
Text:KFNL 161856Z AUTO 16009KT 3SM HZ CLR 29/11 A3020 RMK AO2 SLP162 T02890111 PNO $
Temperature: 28.9°C ( 84°F)
Dewpoint: 11.1°C ( 52°F) [RH = 33%]
Pressure (altimeter):30.20 inches Hg (1022.8 mb) [Sea level pressure: 1016.2 mb]
Winds:from the SSE (160 degrees) at 10 MPH (9 knots; 4.6 m/s)
Visibility: 3 sm ( 5 km)
Ceiling:at least 12,000 feet AGL
Clouds:sky clear below 12,000 feet AGL
Weather:HZ (haze)
QC Flag:automated observation with no human augmentation; SOME DATA ABOVE MAY BE INACCURATE!!!"$" is an indication the sensor requires maintenance.
Text:KFNL 161835Z AUTO 15007KT 2 1/2SM HZ CLR 28/12 A3021 RMK AO2 VIS 1V5 PNO $
Temperature: 28.0°C ( 82°F)
Dewpoint: 12.0°C ( 54°F) [RH = 37%]
Pressure (altimeter):30.21 inches Hg (1023.1 mb)
Winds:from the SSE (150 degrees) at 8 MPH (7 knots; 3.6 m/s)
Visibility: 2.50 sm ( 4.02 km)
Ceiling:at least 12,000 feet AGL
Clouds:sky clear below 12,000 feet AGL
Weather:HZ (haze)
QC Flag:automated observation with no human augmentation; SOME DATA ABOVE MAY BE INACCURATE!!!"$" is an indication the sensor requires maintenance.
Text:KFNL 161810Z AUTO VRB03KT 5SM HZ CLR 28/12 A3021 RMK AO2 PNO $
Temperature: 28.0°C ( 82°F)
Dewpoint: 12.0°C ( 54°F) [RH = 37%]
Pressure (altimeter):30.21 inches Hg (1023.1 mb)
Winds:variable direction winds at 3 MPH (3 knots; 1.5 m/s)
Visibility: 5 sm ( 8 km)
Ceiling:at least 12,000 feet AGL
Clouds:sky clear below 12,000 feet AGL
Weather:HZ (haze)
QC Flag:automated observation with no human augmentation; SOME DATA ABOVE MAY BE INACCURATE!!!"$" is an indication the sensor requires maintenance.
Text:KFNL 161756Z AUTO 12008KT 2 1/2SM HZ CLR 28/11 A3022 RMK AO2 VIS 1V5 SLP167 6//// T02830111 10283 20144 58001 PNO $
Temperature: 28.3°C ( 83°F)
Dewpoint: 11.1°C ( 52°F) [RH = 34%]
Pressure (altimeter):30.22 inches Hg (1023.5 mb) [Sea level pressure: 1016.7 mb]
Winds:from the ESE (120 degrees) at 9 MPH (8 knots; 4.1 m/s)
Visibility: 2.50 sm ( 4.02 km)
Ceiling:at least 12,000 feet AGL
Clouds:sky clear below 12,000 feet AGL
Weather:HZ (haze)
QC Flag:automated observation with no human augmentation; SOME DATA ABOVE MAY BE INACCURATE!!!"$" is an indication the sensor requires maintenance.
Text:KFNL 161735Z AUTO 11007KT 060V180 4SM HZ CLR 27/11 A3022 RMK AO2 PNO $
Temperature: 27.0°C ( 81°F)
Dewpoint: 11.0°C ( 52°F) [RH = 37%]
Pressure (altimeter):30.22 inches Hg (1023.5 mb)
Winds:from the ESE (110 degrees) at 8 MPH (7 knots; 3.6 m/s)
Visibility: 4 sm ( 6 km)
Ceiling:at least 12,000 feet AGL
Clouds:sky clear below 12,000 feet AGL
Weather:HZ (haze)
QC Flag:automated observation with no human augmentation; SOME DATA ABOVE MAY BE INACCURATE!!!"$" is an indication the sensor requires maintenance.
Text:KFNL 161725Z AUTO VRB05KT 1 3/4SM HZ CLR 27/10 A3022 RMK AO2 VIS 1/2V5 PNO $
Temperature: 27.0°C ( 81°F)
Dewpoint: 10.0°C ( 50°F) [RH = 34%]
Pressure (altimeter):30.22 inches Hg (1023.5 mb)
Winds:variable direction winds at 6 MPH (5 knots; 2.6 m/s)
Visibility: 1.75 sm ( 2.82 km)
Ceiling:at least 12,000 feet AGL
Clouds:sky clear below 12,000 feet AGL
Weather:HZ (haze)
QC Flag:automated observation with no human augmentation; SOME DATA ABOVE MAY BE INACCURATE!!!"$" is an indication the sensor requires maintenance.
Text:KFNL 161656Z AUTO VRB03KT 5SM HZ CLR 27/11 A3023 RMK AO2 SLP171 T02670106 PNO $
Temperature: 26.7°C ( 80°F)
Dewpoint: 10.6°C ( 51°F) [RH = 36%]
Pressure (altimeter):30.23 inches Hg (1023.8 mb) [Sea level pressure: 1017.1 mb]
Winds:variable direction winds at 3 MPH (3 knots; 1.5 m/s)
Visibility: 5 sm ( 8 km)
Ceiling:at least 12,000 feet AGL
Clouds:sky clear below 12,000 feet AGL
Weather:HZ (haze)
QC Flag:automated observation with no human augmentation; SOME DATA ABOVE MAY BE INACCURATE!!!"$" is an indication the sensor requires maintenance.
Text:KFNL 161556Z AUTO VRB03KT 10SM CLR 23/10 A3023 RMK AO2 SLP175 T02330100 PNO $
Temperature: 23.3°C ( 74°F)
Dewpoint: 10.0°C ( 50°F) [RH = 43%]
Pressure (altimeter):30.23 inches Hg (1023.8 mb) [Sea level pressure: 1017.5 mb]
Winds:variable direction winds at 3 MPH (3 knots; 1.5 m/s)
Visibility:10 or more sm (16+ km)
Ceiling:at least 12,000 feet AGL
Clouds:sky clear below 12,000 feet AGL
QC Flag:automated observation with no human augmentation; SOME DATA ABOVE MAY BE INACCURATE!!!"$" is an indication the sensor requires maintenance.
Text:KFNL 161456Z AUTO 33004KT 10SM CLR 20/11 A3022 RMK AO2 SLP175 6//// T02000106 51018 PNO $
Temperature: 20.0°C ( 68°F)
Dewpoint: 10.6°C ( 51°F) [RH = 55%]
Pressure (altimeter):30.22 inches Hg (1023.5 mb) [Sea level pressure: 1017.5 mb]
Winds:from the NNW (330 degrees) at 5 MPH (4 knots; 2.1 m/s)
Visibility:10 or more sm (16+ km)
Ceiling:at least 12,000 feet AGL
Clouds:sky clear below 12,000 feet AGL
QC Flag:automated observation with no human augmentation; SOME DATA ABOVE MAY BE INACCURATE!!!"$" is an indication the sensor requires maintenance.
Text:KFNL 161356Z AUTO 02006KT 10SM CLR 16/11 A3021 RMK AO2 SLP172 T01610106 PNO $
Temperature: 16.1°C ( 61°F)
Dewpoint: 10.6°C ( 51°F) [RH = 70%]
Pressure (altimeter):30.21 inches Hg (1023.1 mb) [Sea level pressure: 1017.2 mb]
Winds:from the NNE (20 degrees) at 7 MPH (6 knots; 3.1 m/s)
Visibility:10 or more sm (16+ km)
Ceiling:at least 12,000 feet AGL
Clouds:sky clear below 12,000 feet AGL
QC Flag:automated observation with no human augmentation; SOME DATA ABOVE MAY BE INACCURATE!!!"$" is an indication the sensor requires maintenance.